sensor_id;sensor_type;location;lat;lon;timestamp;P1;durP1;ratioP1;P2;durP2;ratioP2
62554;SDS011;48610;52.144;8.624;2023-06-24T00:01:16;23.42;;;9.85;;
62554;SDS011;48610;52.144;8.624;2023-06-24T00:04:17;17.83;;;8.80;;
62554;SDS011;48610;52.144;8.624;2023-06-24T00:07:19;29.65;;;9.77;;
62554;SDS011;48610;52.144;8.624;2023-06-24T00:10:22;24.80;;;10.18;;
62554;SDS011;48610;52.144;8.624;2023-06-24T00:13:22;22.17;;;10.98;;
62554;SDS011;48610;52.144;8.624;2023-06-24T00:16:23;22.95;;;11.18;;
62554;SDS011;48610;52.144;8.624;2023-06-24T00:19:27;29.75;;;10.60;;
62554;SDS011;48610;52.144;8.624;2023-06-24T00:22:27;24.67;;;10.00;;
62554;SDS011;48610;52.144;8.624;2023-06-24T00:25:28;21.55;;;10.75;;
62554;SDS011;48610;52.144;8.624;2023-06-24T00:28:29;21.00;;;10.55;;
62554;SDS011;48610;52.144;8.624;2023-06-24T00:31:30;24.30;;;11.07;;
62554;SDS011;48610;52.144;8.624;2023-06-24T00:34:30;21.40;;;10.95;;
62554;SDS011;48610;52.144;8.624;2023-06-24T00:37:31;26.58;;;10.88;;
62554;SDS011;48610;52.144;8.624;2023-06-24T00:40:31;22.95;;;11.38;;
62554;SDS011;48610;52.144;8.624;2023-06-24T00:43:33;21.08;;;10.63;;
62554;SDS011;48610;52.144;8.624;2023-06-24T00:46:33;22.15;;;10.05;;
62554;SDS011;48610;52.144;8.624;2023-06-24T00:49:35;26.10;;;10.35;;
62554;SDS011;48610;52.144;8.624;2023-06-24T00:52:35;21.42;;;9.80;;
62554;SDS011;48610;52.144;8.624;2023-06-24T00:55:39;31.80;;;10.38;;
62554;SDS011;48610;52.144;8.624;2023-06-24T00:58:39;21.23;;;9.82;;
62554;SDS011;48610;52.144;8.624;2023-06-24T01:01:42;24.83;;;10.30;;
62554;SDS011;48610;52.144;8.624;2023-06-24T01:04:45;19.50;;;9.80;;
62554;SDS011;48610;52.144;8.624;2023-06-24T01:07:47;19.05;;;9.35;;
62554;SDS011;48610;52.144;8.624;2023-06-24T01:10:54;17.13;;;9.70;;
62554;SDS011;48610;52.144;8.624;2023-06-24T01:13:55;21.02;;;10.18;;
62554;SDS011;48610;52.144;8.624;2023-06-24T01:17:00;22.52;;;10.65;;
62554;SDS011;48610;52.144;8.624;2023-06-24T01:33:12;19.42;;;10.30;;
62554;SDS011;48610;52.144;8.624;2023-06-24T01:36:19;21.80;;;10.10;;
62554;SDS011;48610;52.144;8.624;2023-06-24T01:39:22;23.17;;;10.68;;
62554;SDS011;48610;52.144;8.624;2023-06-24T01:42:24;24.60;;;10.40;;
62554;SDS011;48610;52.144;8.624;2023-06-24T01:45:25;22.73;;;10.82;;
62554;SDS011;48610;52.144;8.624;2023-06-24T01:48:28;25.75;;;10.02;;
62554;SDS011;48610;52.144;8.624;2023-06-24T01:51:30;22.48;;;10.90;;
62554;SDS011;48610;52.144;8.624;2023-06-24T01:54:32;28.70;;;10.30;;
62554;SDS011;48610;52.144;8.624;2023-06-24T01:57:35;24.63;;;10.13;;
62554;SDS011;48610;52.144;8.624;2023-06-24T02:00:37;11.25;;;7.22;;
62554;SDS011;48610;52.144;8.624;2023-06-24T02:03:39;18.52;;;8.50;;
62554;SDS011;48610;52.144;8.624;2023-06-24T02:06:41;21.55;;;9.07;;
62554;SDS011;48610;52.144;8.624;2023-06-24T02:09:44;17.95;;;9.27;;
62554;SDS011;48610;52.144;8.624;2023-06-24T02:12:46;18.27;;;9.07;;
62554;SDS011;48610;52.144;8.624;2023-06-24T02:15:49;17.50;;;9.90;;
62554;SDS011;48610;52.144;8.624;2023-06-24T02:18:52;20.63;;;9.25;;
62554;SDS011;48610;52.144;8.624;2023-06-24T02:21:55;24.45;;;10.75;;
62554;SDS011;48610;52.144;8.624;2023-06-24T02:24:57;28.10;;;11.38;;
62554;SDS011;48610;52.144;8.624;2023-06-24T02:27:58;17.50;;;9.77;;
62554;SDS011;48610;52.144;8.624;2023-06-24T02:30:59;16.77;;;9.77;;
62554;SDS011;48610;52.144;8.624;2023-06-24T02:34:00;35.00;;;10.23;;
62554;SDS011;48610;52.144;8.624;2023-06-24T02:37:01;18.85;;;9.82;;
62554;SDS011;48610;52.144;8.624;2023-06-24T02:40:02;19.67;;;9.82;;
62554;SDS011;48610;52.144;8.624;2023-06-24T02:43:05;30.15;;;11.07;;
62554;SDS011;48610;52.144;8.624;2023-06-24T02:46:05;20.80;;;9.40;;
62554;SDS011;48610;52.144;8.624;2023-06-24T02:49:08;31.30;;;10.50;;
62554;SDS011;48610;52.144;8.624;2023-06-24T02:52:12;23.33;;;10.23;;
62554;SDS011;48610;52.144;8.624;2023-06-24T02:55:14;19.25;;;9.38;;
62554;SDS011;48610;52.144;8.624;2023-06-24T02:58:15;25.92;;;10.15;;
62554;SDS011;48610;52.144;8.624;2023-06-24T03:01:16;23.20;;;10.40;;
62554;SDS011;48610;52.144;8.624;2023-06-24T03:04:17;20.38;;;10.73;;
62554;SDS011;48610;52.144;8.624;2023-06-24T03:07:19;15.65;;;9.45;;
62554;SDS011;48610;52.144;8.624;2023-06-24T03:10:22;26.05;;;10.05;;
62554;SDS011;48610;52.144;8.624;2023-06-24T03:13:24;28.33;;;9.13;;
62554;SDS011;48610;52.144;8.624;2023-06-24T03:16:24;20.73;;;9.05;;
62554;SDS011;48610;52.144;8.624;2023-06-24T03:19:25;15.43;;;9.20;;
62554;SDS011;48610;52.144;8.624;2023-06-24T03:22:25;24.90;;;10.23;;
62554;SDS011;48610;52.144;8.624;2023-06-24T03:25:26;25.38;;;9.23;;
62554;SDS011;48610;52.144;8.624;2023-06-24T03:28:26;23.95;;;9.52;;
62554;SDS011;48610;52.144;8.624;2023-06-24T03:31:27;19.45;;;8.55;;
62554;SDS011;48610;52.144;8.624;2023-06-24T03:34:28;19.00;;;8.63;;
62554;SDS011;48610;52.144;8.624;2023-06-24T03:37:28;25.25;;;9.10;;
62554;SDS011;48610;52.144;8.624;2023-06-24T03:40:29;17.20;;;9.35;;
62554;SDS011;48610;52.144;8.624;2023-06-24T03:43:30;16.40;;;9.45;;
62554;SDS011;48610;52.144;8.624;2023-06-24T03:46:31;20.58;;;9.05;;
62554;SDS011;48610;52.144;8.624;2023-06-24T03:49:32;20.67;;;8.80;;
62554;SDS011;48610;52.144;8.624;2023-06-24T03:52:33;15.52;;;8.80;;
62554;SDS011;48610;52.144;8.624;2023-06-24T03:55:34;30.02;;;9.18;;
62554;SDS011;48610;52.144;8.624;2023-06-24T03:58:34;21.10;;;10.40;;
62554;SDS011;48610;52.144;8.624;2023-06-24T04:01:35;24.83;;;10.40;;
62554;SDS011;48610;52.144;8.624;2023-06-24T04:04:36;18.80;;;9.95;;
62554;SDS011;48610;52.144;8.624;2023-06-24T04:07:36;20.80;;;10.35;;
62554;SDS011;48610;52.144;8.624;2023-06-24T04:10:38;21.65;;;9.88;;
62554;SDS011;48610;52.144;8.624;2023-06-24T04:13:38;18.10;;;9.88;;
62554;SDS011;48610;52.144;8.624;2023-06-24T04:16:39;19.10;;;10.93;;
62554;SDS011;48610;52.144;8.624;2023-06-24T04:19:40;22.70;;;9.98;;
62554;SDS011;48610;52.144;8.624;2023-06-24T04:22:42;24.40;;;11.15;;
62554;SDS011;48610;52.144;8.624;2023-06-24T04:25:42;19.80;;;10.02;;
62554;SDS011;48610;52.144;8.624;2023-06-24T04:28:43;20.30;;;9.38;;
62554;SDS011;48610;52.144;8.624;2023-06-24T04:31:43;19.73;;;10.23;;
62554;SDS011;48610;52.144;8.624;2023-06-24T04:34:44;21.67;;;10.45;;
62554;SDS011;48610;52.144;8.624;2023-06-24T04:37:44;26.95;;;11.23;;
62554;SDS011;48610;52.144;8.624;2023-06-24T04:40:45;21.25;;;11.00;;
62554;SDS011;48610;52.144;8.624;2023-06-24T04:43:46;23.75;;;9.52;;
62554;SDS011;48610;52.144;8.624;2023-06-24T04:46:46;26.88;;;9.93;;
62554;SDS011;48610;52.144;8.624;2023-06-24T04:49:47;26.75;;;9.30;;
62554;SDS011;48610;52.144;8.624;2023-06-24T04:52:54;23.98;;;9.52;;
62554;SDS011;48610;52.144;8.624;2023-06-24T04:55:56;19.52;;;9.98;;
62554;SDS011;48610;52.144;8.624;2023-06-24T04:58:57;24.27;;;11.63;;
62554;SDS011;48610;52.144;8.624;2023-06-24T05:01:57;22.90;;;10.65;;
62554;SDS011;48610;52.144;8.624;2023-06-24T05:04:58;19.88;;;10.10;;
62554;SDS011;48610;52.144;8.624;2023-06-24T05:07:59;35.72;;;12.88;;
62554;SDS011;48610;52.144;8.624;2023-06-24T05:10:59;29.58;;;11.57;;
62554;SDS011;48610;52.144;8.624;2023-06-24T05:14:00;35.20;;;11.98;;
62554;SDS011;48610;52.144;8.624;2023-06-24T05:17:01;34.20;;;11.60;;
62554;SDS011;48610;52.144;8.624;2023-06-24T05:20:02;25.00;;;11.38;;
62554;SDS011;48610;52.144;8.624;2023-06-24T05:23:04;24.80;;;11.68;;
62554;SDS011;48610;52.144;8.624;2023-06-24T05:26:04;23.77;;;10.77;;
62554;SDS011;48610;52.144;8.624;2023-06-24T05:29:05;28.13;;;12.45;;
62554;SDS011;48610;52.144;8.624;2023-06-24T05:32:05;30.77;;;11.75;;
62554;SDS011;48610;52.144;8.624;2023-06-24T05:35:06;30.23;;;12.20;;
62554;SDS011;48610;52.144;8.624;2023-06-24T05:38:07;35.88;;;11.80;;
62554;SDS011;48610;52.144;8.624;2023-06-24T05:41:08;25.42;;;12.07;;
62554;SDS011;48610;52.144;8.624;2023-06-24T05:44:08;35.70;;;11.20;;
62554;SDS011;48610;52.144;8.624;2023-06-24T05:47:10;25.10;;;11.82;;
62554;SDS011;48610;52.144;8.624;2023-06-24T05:50:11;28.25;;;11.75;;
62554;SDS011;48610;52.144;8.624;2023-06-24T05:53:11;20.35;;;10.35;;
62554;SDS011;48610;52.144;8.624;2023-06-24T05:56:12;22.85;;;10.93;;
62554;SDS011;48610;52.144;8.624;2023-06-24T05:59:12;29.67;;;11.68;;
62554;SDS011;48610;52.144;8.624;2023-06-24T06:02:13;33.60;;;11.30;;
62554;SDS011;48610;52.144;8.624;2023-06-24T06:05:13;21.38;;;10.82;;
62554;SDS011;48610;52.144;8.624;2023-06-24T06:08:14;28.77;;;10.93;;
62554;SDS011;48610;52.144;8.624;2023-06-24T06:11:15;27.23;;;11.23;;
62554;SDS011;48610;52.144;8.624;2023-06-24T06:14:15;27.60;;;10.45;;
62554;SDS011;48610;52.144;8.624;2023-06-24T06:17:16;22.85;;;10.75;;
62554;SDS011;48610;52.144;8.624;2023-06-24T06:20:16;20.05;;;10.32;;
62554;SDS011;48610;52.144;8.624;2023-06-24T06:23:17;21.55;;;10.45;;
62554;SDS011;48610;52.144;8.624;2023-06-24T06:26:17;26.45;;;10.15;;
62554;SDS011;48610;52.144;8.624;2023-06-24T06:29:18;16.77;;;9.68;;
62554;SDS011;48610;52.144;8.624;2023-06-24T06:32:18;26.85;;;10.43;;
62554;SDS011;48610;52.144;8.624;2023-06-24T06:35:19;26.67;;;9.95;;
62554;SDS011;48610;52.144;8.624;2023-06-24T06:38:19;22.35;;;10.50;;
62554;SDS011;48610;52.144;8.624;2023-06-24T06:41:20;23.13;;;9.45;;
62554;SDS011;48610;52.144;8.624;2023-06-24T06:44:26;24.55;;;10.45;;
62554;SDS011;48610;52.144;8.624;2023-06-24T06:47:27;20.77;;;10.85;;
62554;SDS011;48610;52.144;8.624;2023-06-24T06:50:27;22.02;;;9.77;;
62554;SDS011;48610;52.144;8.624;2023-06-24T06:53:28;22.02;;;9.70;;
62554;SDS011;48610;52.144;8.624;2023-06-24T06:56:28;26.80;;;9.93;;
62554;SDS011;48610;52.144;8.624;2023-06-24T06:59:30;25.67;;;9.70;;
62554;SDS011;48610;52.144;8.624;2023-06-24T07:02:31;41.42;;;10.80;;
62554;SDS011;48610;52.144;8.624;2023-06-24T07:05:31;20.80;;;10.15;;
62554;SDS011;48610;52.144;8.624;2023-06-24T07:08:33;23.10;;;10.40;;
62554;SDS011;48610;52.144;8.624;2023-06-24T07:11:33;31.73;;;11.38;;
62554;SDS011;48610;52.144;8.624;2023-06-24T07:14:34;22.95;;;10.52;;
62554;SDS011;48610;52.144;8.624;2023-06-24T07:17:34;19.95;;;10.25;;
62554;SDS011;48610;52.144;8.624;2023-06-24T07:20:35;23.50;;;11.48;;
62554;SDS011;48610;52.144;8.624;2023-06-24T07:23:36;29.25;;;11.55;;
62554;SDS011;48610;52.144;8.624;2023-06-24T07:26:36;22.35;;;11.45;;
62554;SDS011;48610;52.144;8.624;2023-06-24T07:29:37;20.50;;;10.52;;
62554;SDS011;48610;52.144;8.624;2023-06-24T07:32:37;26.60;;;10.38;;
62554;SDS011;48610;52.144;8.624;2023-06-24T07:35:38;22.15;;;11.07;;
62554;SDS011;48610;52.144;8.624;2023-06-24T07:38:39;29.48;;;11.93;;
62554;SDS011;48610;52.144;8.624;2023-06-24T07:41:39;20.65;;;10.43;;
62554;SDS011;48610;52.144;8.624;2023-06-24T07:44:42;28.80;;;10.65;;
62554;SDS011;48610;52.144;8.624;2023-06-24T07:47:42;22.95;;;11.20;;
62554;SDS011;48610;52.144;8.624;2023-06-24T07:50:43;23.88;;;11.05;;
62554;SDS011;48610;52.144;8.624;2023-06-24T07:53:44;26.35;;;11.90;;
62554;SDS011;48610;52.144;8.624;2023-06-24T07:56:44;22.95;;;11.32;;
62554;SDS011;48610;52.144;8.624;2023-06-24T07:59:45;22.95;;;11.38;;
62554;SDS011;48610;52.144;8.624;2023-06-24T08:02:45;25.80;;;11.05;;
62554;SDS011;48610;52.144;8.624;2023-06-24T08:05:46;18.90;;;10.48;;
62554;SDS011;48610;52.144;8.624;2023-06-24T08:08:46;25.17;;;10.85;;
62554;SDS011;48610;52.144;8.624;2023-06-24T08:11:47;24.08;;;10.98;;
62554;SDS011;48610;52.144;8.624;2023-06-24T08:14:48;28.63;;;11.18;;
62554;SDS011;48610;52.144;8.624;2023-06-24T08:17:51;19.45;;;10.88;;
62554;SDS011;48610;52.144;8.624;2023-06-24T08:20:53;16.85;;;10.35;;
62554;SDS011;48610;52.144;8.624;2023-06-24T08:23:53;19.83;;;9.95;;
62554;SDS011;48610;52.144;8.624;2023-06-24T08:26:54;23.27;;;9.50;;
62554;SDS011;48610;52.144;8.624;2023-06-24T08:29:54;26.92;;;10.27;;
62554;SDS011;48610;52.144;8.624;2023-06-24T08:32:55;18.85;;;10.15;;
62554;SDS011;48610;52.144;8.624;2023-06-24T08:35:56;16.48;;;9.32;;
62554;SDS011;48610;52.144;8.624;2023-06-24T08:38:56;20.33;;;9.38;;
62554;SDS011;48610;52.144;8.624;2023-06-24T08:41:57;21.77;;;10.40;;
62554;SDS011;48610;52.144;8.624;2023-06-24T08:44:57;20.42;;;9.50;;
62554;SDS011;48610;52.144;8.624;2023-06-24T08:47:58;22.75;;;10.90;;
62554;SDS011;48610;52.144;8.624;2023-06-24T08:51:01;23.00;;;9.63;;
62554;SDS011;48610;52.144;8.624;2023-06-24T08:54:03;15.48;;;8.65;;
62554;SDS011;48610;52.144;8.624;2023-06-24T08:57:06;20.73;;;8.73;;
62554;SDS011;48610;52.144;8.624;2023-06-24T09:00:08;15.60;;;8.68;;
62554;SDS011;48610;52.144;8.624;2023-06-24T09:03:10;16.27;;;8.10;;
62554;SDS011;48610;52.144;8.624;2023-06-24T09:06:11;17.55;;;9.18;;
62554;SDS011;48610;52.144;8.624;2023-06-24T09:09:18;20.83;;;9.27;;
62554;SDS011;48610;52.144;8.624;2023-06-24T09:12:23;16.38;;;9.27;;
62554;SDS011;48610;52.144;8.624;2023-06-24T09:15:29;15.93;;;9.43;;
62554;SDS011;48610;52.144;8.624;2023-06-24T09:18:33;24.00;;;9.80;;
62554;SDS011;48610;52.144;8.624;2023-06-24T09:21:34;19.42;;;8.80;;
62554;SDS011;48610;52.144;8.624;2023-06-24T09:24:36;20.42;;;9.40;;
62554;SDS011;48610;52.144;8.624;2023-06-24T09:27:37;17.85;;;9.68;;
62554;SDS011;48610;52.144;8.624;2023-06-24T09:30:38;22.20;;;10.10;;
62554;SDS011;48610;52.144;8.624;2023-06-24T09:33:39;21.55;;;9.93;;
62554;SDS011;48610;52.144;8.624;2023-06-24T09:36:43;16.52;;;9.35;;
62554;SDS011;48610;52.144;8.624;2023-06-24T09:39:45;22.17;;;9.00;;
62554;SDS011;48610;52.144;8.624;2023-06-24T09:42:49;20.67;;;9.85;;
62554;SDS011;48610;52.144;8.624;2023-06-24T09:45:51;22.35;;;10.75;;
62554;SDS011;48610;52.144;8.624;2023-06-24T09:48:52;23.65;;;9.82;;
62554;SDS011;48610;52.144;8.624;2023-06-24T09:51:56;26.13;;;9.35;;
62554;SDS011;48610;52.144;8.624;2023-06-24T09:54:58;14.32;;;8.32;;
62554;SDS011;48610;52.144;8.624;2023-06-24T09:58:00;18.58;;;9.32;;
62554;SDS011;48610;52.144;8.624;2023-06-24T10:01:01;13.32;;;8.13;;
62554;SDS011;48610;52.144;8.624;2023-06-24T10:04:04;19.33;;;9.15;;
62554;SDS011;48610;52.144;8.624;2023-06-24T10:07:06;22.25;;;10.40;;
62554;SDS011;48610;52.144;8.624;2023-06-24T10:10:07;20.00;;;9.68;;
62554;SDS011;48610;52.144;8.624;2023-06-24T10:13:09;20.08;;;8.90;;
62554;SDS011;48610;52.144;8.624;2023-06-24T10:16:10;18.05;;;8.90;;
62554;SDS011;48610;52.144;8.624;2023-06-24T10:19:13;20.60;;;8.73;;
62554;SDS011;48610;52.144;8.624;2023-06-24T10:22:21;20.42;;;10.38;;
62554;SDS011;48610;52.144;8.624;2023-06-24T10:25:23;22.92;;;9.80;;
62554;SDS011;48610;52.144;8.624;2023-06-24T10:28:24;19.42;;;9.95;;
62554;SDS011;48610;52.144;8.624;2023-06-24T10:32:08;16.70;;;9.48;;
62554;SDS011;48610;52.144;8.624;2023-06-24T10:34:56;19.02;;;8.82;;
62554;SDS011;48610;52.144;8.624;2023-06-24T10:37:58;18.75;;;9.10;;
62554;SDS011;48610;52.144;8.624;2023-06-24T10:40:59;19.42;;;9.65;;
62554;SDS011;48610;52.144;8.624;2023-06-24T10:44:15;14.55;;;8.20;;
62554;SDS011;48610;52.144;8.624;2023-06-24T10:47:17;15.77;;;8.93;;
62554;SDS011;48610;52.144;8.624;2023-06-24T10:50:19;17.58;;;9.25;;
62554;SDS011;48610;52.144;8.624;2023-06-24T10:53:21;20.63;;;7.97;;
62554;SDS011;48610;52.144;8.624;2023-06-24T10:56:22;21.55;;;8.75;;
62554;SDS011;48610;52.144;8.624;2023-06-24T10:59:42;19.15;;;9.38;;
62554;SDS011;48610;52.144;8.624;2023-06-24T11:02:46;19.00;;;10.13;;
62554;SDS011;48610;52.144;8.624;2023-06-24T11:05:48;16.98;;;8.43;;
62554;SDS011;48610;52.144;8.624;2023-06-24T11:08:48;13.95;;;8.48;;
62554;SDS011;48610;52.144;8.624;2023-06-24T11:11:49;16.23;;;7.88;;
62554;SDS011;48610;52.144;8.624;2023-06-24T11:14:49;20.10;;;8.70;;
62554;SDS011;48610;52.144;8.624;2023-06-24T11:17:50;22.55;;;8.80;;
62554;SDS011;48610;52.144;8.624;2023-06-24T11:20:53;15.60;;;8.38;;
62554;SDS011;48610;52.144;8.624;2023-06-24T11:23:54;14.90;;;7.32;;
62554;SDS011;48610;52.144;8.624;2023-06-24T11:26:55;14.20;;;7.60;;
62554;SDS011;48610;52.144;8.624;2023-06-24T11:29:59;11.88;;;8.35;;
62554;SDS011;48610;52.144;8.624;2023-06-24T11:33:04;16.77;;;7.90;;
62554;SDS011;48610;52.144;8.624;2023-06-24T11:36:08;19.48;;;7.88;;
62554;SDS011;48610;52.144;8.624;2023-06-24T11:39:19;17.83;;;8.45;;
62554;SDS011;48610;52.144;8.624;2023-06-24T11:42:27;17.02;;;8.27;;
62554;SDS011;48610;52.144;8.624;2023-06-24T11:45:30;15.90;;;7.82;;
62554;SDS011;48610;52.144;8.624;2023-06-24T11:48:38;15.52;;;8.07;;
62554;SDS011;48610;52.144;8.624;2023-06-24T11:51:46;15.05;;;8.02;;
62554;SDS011;48610;52.144;8.624;2023-06-24T11:54:49;12.98;;;7.32;;
62554;SDS011;48610;52.144;8.624;2023-06-24T12:00:59;14.65;;;7.35;;
62554;SDS011;48610;52.144;8.624;2023-06-24T12:04:00;13.00;;;7.78;;
62554;SDS011;48610;52.144;8.624;2023-06-24T12:07:01;11.27;;;7.03;;
62554;SDS011;48610;52.144;8.624;2023-06-24T12:10:02;16.73;;;7.32;;
62554;SDS011;48610;52.144;8.624;2023-06-24T12:13:03;12.98;;;7.20;;
62554;SDS011;48610;52.144;8.624;2023-06-24T12:16:08;13.93;;;7.55;;
62554;SDS011;48610;52.144;8.624;2023-06-24T12:19:09;12.88;;;7.38;;
62554;SDS011;48610;52.144;8.624;2023-06-24T12:22:10;14.32;;;6.78;;
62554;SDS011;48610;52.144;8.624;2023-06-24T12:25:10;11.75;;;6.32;;
62554;SDS011;48610;52.144;8.624;2023-06-24T12:28:11;11.50;;;6.95;;
62554;SDS011;48610;52.144;8.624;2023-06-24T12:31:11;16.80;;;6.93;;
62554;SDS011;48610;52.144;8.624;2023-06-24T12:34:12;11.35;;;6.88;;
62554;SDS011;48610;52.144;8.624;2023-06-24T12:37:13;13.98;;;7.55;;
62554;SDS011;48610;52.144;8.624;2023-06-24T12:40:13;24.42;;;7.95;;
62554;SDS011;48610;52.144;8.624;2023-06-24T12:43:14;10.93;;;6.05;;
62554;SDS011;48610;52.144;8.624;2023-06-24T12:46:15;9.95;;;6.55;;
62554;SDS011;48610;52.144;8.624;2023-06-24T12:49:15;11.77;;;6.25;;
62554;SDS011;48610;52.144;8.624;2023-06-24T12:52:16;11.65;;;6.13;;
62554;SDS011;48610;52.144;8.624;2023-06-24T12:55:17;11.82;;;6.40;;
62554;SDS011;48610;52.144;8.624;2023-06-24T12:58:21;11.60;;;6.70;;
62554;SDS011;48610;52.144;8.624;2023-06-24T13:01:23;13.93;;;6.10;;
62554;SDS011;48610;52.144;8.624;2023-06-24T13:04:24;11.50;;;6.18;;
62554;SDS011;48610;52.144;8.624;2023-06-24T13:07:24;10.20;;;6.68;;
62554;SDS011;48610;52.144;8.624;2023-06-24T13:10:25;10.48;;;6.40;;
62554;SDS011;48610;52.144;8.624;2023-06-24T13:13:26;10.18;;;6.50;;
62554;SDS011;48610;52.144;8.624;2023-06-24T13:16:26;10.05;;;6.10;;
62554;SDS011;48610;52.144;8.624;2023-06-24T13:19:27;9.60;;;6.22;;
62554;SDS011;48610;52.144;8.624;2023-06-24T13:22:27;15.75;;;6.43;;
62554;SDS011;48610;52.144;8.624;2023-06-24T13:25:28;7.95;;;5.72;;
62554;SDS011;48610;52.144;8.624;2023-06-24T13:28:28;10.70;;;6.18;;
62554;SDS011;48610;52.144;8.624;2023-06-24T13:31:29;14.13;;;6.68;;
62554;SDS011;48610;52.144;8.624;2023-06-24T13:34:30;11.23;;;6.40;;
62554;SDS011;48610;52.144;8.624;2023-06-24T13:37:30;9.30;;;6.25;;
62554;SDS011;48610;52.144;8.624;2023-06-24T13:40:31;12.90;;;6.75;;
62554;SDS011;48610;52.144;8.624;2023-06-24T13:43:31;10.52;;;5.95;;
62554;SDS011;48610;52.144;8.624;2023-06-24T13:46:32;12.35;;;7.07;;
62554;SDS011;48610;52.144;8.624;2023-06-24T13:49:33;10.73;;;6.35;;
62554;SDS011;48610;52.144;8.624;2023-06-24T13:52:33;10.25;;;6.50;;
62554;SDS011;48610;52.144;8.624;2023-06-24T13:55:34;11.85;;;6.50;;
62554;SDS011;48610;52.144;8.624;2023-06-24T13:58:36;17.60;;;6.05;;
62554;SDS011;48610;52.144;8.624;2023-06-24T14:01:36;13.77;;;6.30;;
62554;SDS011;48610;52.144;8.624;2023-06-24T14:04:37;13.98;;;7.05;;
62554;SDS011;48610;52.144;8.624;2023-06-24T14:07:41;14.50;;;6.45;;
62554;SDS011;48610;52.144;8.624;2023-06-24T14:10:41;9.85;;;6.55;;
62554;SDS011;48610;52.144;8.624;2023-06-24T14:13:42;11.82;;;6.32;;
62554;SDS011;48610;52.144;8.624;2023-06-24T14:16:43;14.18;;;6.30;;
62554;SDS011;48610;52.144;8.624;2023-06-24T14:19:44;9.77;;;6.80;;
62554;SDS011;48610;52.144;8.624;2023-06-24T14:22:46;8.75;;;6.03;;
62554;SDS011;48610;52.144;8.624;2023-06-24T14:25:47;8.57;;;6.40;;
62554;SDS011;48610;52.144;8.624;2023-06-24T14:28:47;9.48;;;6.55;;
62554;SDS011;48610;52.144;8.624;2023-06-24T14:31:48;11.02;;;6.88;;
62554;SDS011;48610;52.144;8.624;2023-06-24T14:34:48;12.02;;;7.35;;
62554;SDS011;48610;52.144;8.624;2023-06-24T14:37:49;11.68;;;6.47;;
62554;SDS011;48610;52.144;8.624;2023-06-24T14:40:50;9.13;;;6.68;;
62554;SDS011;48610;52.144;8.624;2023-06-24T14:43:51;11.98;;;6.82;;
62554;SDS011;48610;52.144;8.624;2023-06-24T14:46:52;9.02;;;6.55;;
62554;SDS011;48610;52.144;8.624;2023-06-24T14:49:52;11.40;;;6.88;;
62554;SDS011;48610;52.144;8.624;2023-06-24T14:52:53;12.77;;;7.30;;
62554;SDS011;48610;52.144;8.624;2023-06-24T14:55:53;13.55;;;6.55;;
62554;SDS011;48610;52.144;8.624;2023-06-24T14:58:54;9.88;;;6.70;;
62554;SDS011;48610;52.144;8.624;2023-06-24T15:01:54;8.50;;;6.18;;
62554;SDS011;48610;52.144;8.624;2023-06-24T15:04:55;10.32;;;6.10;;
62554;SDS011;48610;52.144;8.624;2023-06-24T15:07:56;10.73;;;6.53;;
62554;SDS011;48610;52.144;8.624;2023-06-24T15:10:56;12.60;;;7.15;;
62554;SDS011;48610;52.144;8.624;2023-06-24T15:13:57;11.20;;;6.65;;
62554;SDS011;48610;52.144;8.624;2023-06-24T15:16:57;9.43;;;6.68;;
62554;SDS011;48610;52.144;8.624;2023-06-24T15:19:58;9.13;;;6.53;;
62554;SDS011;48610;52.144;8.624;2023-06-24T15:22:59;12.43;;;6.97;;
62554;SDS011;48610;52.144;8.624;2023-06-24T15:25:59;11.02;;;7.05;;
62554;SDS011;48610;52.144;8.624;2023-06-24T15:29:00;10.93;;;7.00;;
62554;SDS011;48610;52.144;8.624;2023-06-24T15:32:01;10.45;;;6.88;;
62554;SDS011;48610;52.144;8.624;2023-06-24T15:35:02;10.35;;;6.78;;
62554;SDS011;48610;52.144;8.624;2023-06-24T15:38:03;13.70;;;7.15;;
62554;SDS011;48610;52.144;8.624;2023-06-24T15:41:04;9.73;;;6.95;;
62554;SDS011;48610;52.144;8.624;2023-06-24T15:44:05;13.63;;;9.13;;
62554;SDS011;48610;52.144;8.624;2023-06-24T15:47:05;14.55;;;8.35;;
62554;SDS011;48610;52.144;8.624;2023-06-24T15:50:06;11.95;;;8.13;;
62554;SDS011;48610;52.144;8.624;2023-06-24T15:53:07;57.78;;;31.67;;
62554;SDS011;48610;52.144;8.624;2023-06-24T15:56:08;16.58;;;9.57;;
62554;SDS011;48610;52.144;8.624;2023-06-24T15:59:08;12.88;;;7.32;;
62554;SDS011;48610;52.144;8.624;2023-06-24T16:02:09;12.15;;;7.55;;
62554;SDS011;48610;52.144;8.624;2023-06-24T16:05:10;11.30;;;7.50;;
62554;SDS011;48610;52.144;8.624;2023-06-24T16:08:10;9.65;;;7.20;;
62554;SDS011;48610;52.144;8.624;2023-06-24T16:11:11;11.18;;;7.43;;
62554;SDS011;48610;52.144;8.624;2023-06-24T16:14:11;11.25;;;7.63;;
62554;SDS011;48610;52.144;8.624;2023-06-24T16:17:12;13.48;;;7.53;;
62554;SDS011;48610;52.144;8.624;2023-06-24T16:20:13;10.88;;;7.20;;
62554;SDS011;48610;52.144;8.624;2023-06-24T16:23:16;15.00;;;7.22;;
62554;SDS011;48610;52.144;8.624;2023-06-24T16:26:17;11.10;;;7.47;;
62554;SDS011;48610;52.144;8.624;2023-06-24T16:29:17;10.00;;;7.30;;
62554;SDS011;48610;52.144;8.624;2023-06-24T16:32:18;16.60;;;7.32;;
62554;SDS011;48610;52.144;8.624;2023-06-24T16:35:18;10.75;;;7.18;;
62554;SDS011;48610;52.144;8.624;2023-06-24T16:38:19;12.95;;;7.20;;
62554;SDS011;48610;52.144;8.624;2023-06-24T16:41:19;10.70;;;7.45;;
62554;SDS011;48610;52.144;8.624;2023-06-24T16:44:20;9.70;;;6.95;;
62554;SDS011;48610;52.144;8.624;2023-06-24T16:47:21;10.25;;;7.25;;
62554;SDS011;48610;52.144;8.624;2023-06-24T16:50:22;9.85;;;6.93;;
62554;SDS011;48610;52.144;8.624;2023-06-24T16:53:23;10.65;;;7.50;;
62554;SDS011;48610;52.144;8.624;2023-06-24T16:56:23;13.93;;;6.93;;
62554;SDS011;48610;52.144;8.624;2023-06-24T16:59:24;11.63;;;7.20;;
62554;SDS011;48610;52.144;8.624;2023-06-24T17:02:24;9.38;;;6.97;;
62554;SDS011;48610;52.144;8.624;2023-06-24T17:05:25;9.95;;;7.50;;
62554;SDS011;48610;52.144;8.624;2023-06-24T17:08:25;10.63;;;6.68;;
62554;SDS011;48610;52.144;8.624;2023-06-24T17:11:26;10.50;;;7.40;;
62554;SDS011;48610;52.144;8.624;2023-06-24T17:14:27;12.50;;;7.60;;
62554;SDS011;48610;52.144;8.624;2023-06-24T17:17:27;11.68;;;7.05;;
62554;SDS011;48610;52.144;8.624;2023-06-24T17:20:28;20.00;;;8.60;;
62554;SDS011;48610;52.144;8.624;2023-06-24T17:23:28;12.05;;;7.72;;
62554;SDS011;48610;52.144;8.624;2023-06-24T17:26:29;10.43;;;7.30;;
62554;SDS011;48610;52.144;8.624;2023-06-24T17:29:29;11.00;;;7.10;;
62554;SDS011;48610;52.144;8.624;2023-06-24T17:32:30;11.70;;;8.10;;
62554;SDS011;48610;52.144;8.624;2023-06-24T17:35:30;10.07;;;6.80;;
62554;SDS011;48610;52.144;8.624;2023-06-24T17:38:31;10.88;;;7.35;;
62554;SDS011;48610;52.144;8.624;2023-06-24T17:41:31;12.25;;;7.72;;
62554;SDS011;48610;52.144;8.624;2023-06-24T17:44:32;16.13;;;7.85;;
62554;SDS011;48610;52.144;8.624;2023-06-24T17:47:33;14.25;;;7.88;;
62554;SDS011;48610;52.144;8.624;2023-06-24T17:50:33;13.40;;;7.82;;
62554;SDS011;48610;52.144;8.624;2023-06-24T17:53:34;9.00;;;7.43;;
62554;SDS011;48610;52.144;8.624;2023-06-24T17:56:34;11.25;;;7.65;;
62554;SDS011;48610;52.144;8.624;2023-06-24T17:59:37;10.98;;;7.40;;
62554;SDS011;48610;52.144;8.624;2023-06-24T18:02:37;15.40;;;7.40;;
62554;SDS011;48610;52.144;8.624;2023-06-24T18:05:38;11.60;;;7.88;;
62554;SDS011;48610;52.144;8.624;2023-06-24T18:08:38;13.10;;;7.88;;